sensor_id;sensor_type;location;lat;lon;timestamp;pressure;altitude;pressure_sealevel;temperature;humidity
34674;BME280;20879;55.668;37.858;2022-12-07T00:00:04;101076.22;;;-10.54;67.67
34674;BME280;20879;55.668;37.858;2022-12-07T00:02:34;101080.06;;;-10.58;67.82
34674;BME280;20879;55.668;37.858;2022-12-07T00:05:06;101072.00;;;-10.64;68.08
34674;BME280;20879;55.668;37.858;2022-12-07T00:07:35;101071.72;;;-10.67;68.46
34674;BME280;20879;55.668;37.858;2022-12-07T00:10:06;101080.88;;;-10.76;68.86
34674;BME280;20879;55.668;37.858;2022-12-07T00:12:40;101077.09;;;-10.81;68.54
34674;BME280;20879;55.668;37.858;2022-12-07T00:15:10;101080.22;;;-10.93;68.93
34674;BME280;20879;55.668;37.858;2022-12-07T00:17:39;101078.94;;;-10.98;69.12
34674;BME280;20879;55.668;37.858;2022-12-07T00:20:11;101077.88;;;-11.00;68.87
34674;BME280;20879;55.668;37.858;2022-12-07T00:22:40;101077.31;;;-11.06;69.11
34674;BME280;20879;55.668;37.858;2022-12-07T00:25:09;101080.00;;;-11.13;69.09
34674;BME280;20879;55.668;37.858;2022-12-07T00:27:40;101080.72;;;-11.14;69.06
34674;BME280;20879;55.668;37.858;2022-12-07T00:30:10;101084.56;;;-11.18;69.27
34674;BME280;20879;55.668;37.858;2022-12-07T00:32:39;101077.22;;;-11.25;69.71
34674;BME280;20879;55.668;37.858;2022-12-07T00:35:10;101063.44;;;-11.39;69.59
34674;BME280;20879;55.668;37.858;2022-12-07T00:37:39;101084.03;;;-11.33;69.81
34674;BME280;20879;55.668;37.858;2022-12-07T00:40:09;101081.81;;;-11.38;70.19
34674;BME280;20879;55.668;37.858;2022-12-07T00:42:39;101077.44;;;-11.50;70.53
34674;BME280;20879;55.668;37.858;2022-12-07T00:45:09;101078.78;;;-11.53;71.00
34674;BME280;20879;55.668;37.858;2022-12-07T00:47:43;101069.66;;;-11.62;71.04
34674;BME280;20879;55.668;37.858;2022-12-07T00:50:15;101081.44;;;-11.61;71.47
34674;BME280;20879;55.668;37.858;2022-12-07T00:52:50;101088.16;;;-11.68;71.73
34674;BME280;20879;55.668;37.858;2022-12-07T00:55:19;101084.38;;;-11.73;72.71
34674;BME280;20879;55.668;37.858;2022-12-07T00:57:48;101076.72;;;-11.75;72.38
34674;BME280;20879;55.668;37.858;2022-12-07T01:00:24;101070.53;;;-11.79;73.08
34674;BME280;20879;55.668;37.858;2022-12-07T01:03:08;101076.28;;;-11.88;73.28
34674;BME280;20879;55.668;37.858;2022-12-07T01:05:51;101086.00;;;-11.91;73.83
34674;BME280;20879;55.668;37.858;2022-12-07T01:08:22;101036.94;;;-12.17;73.41
34674;BME280;20879;55.668;37.858;2022-12-07T01:10:59;101072.22;;;-11.97;73.77
34674;BME280;20879;55.668;37.858;2022-12-07T01:13:29;101074.69;;;-11.97;74.23
34674;BME280;20879;55.668;37.858;2022-12-07T01:16:00;101080.41;;;-11.98;73.98
34674;BME280;20879;55.668;37.858;2022-12-07T01:18:31;101075.56;;;-12.05;74.76
34674;BME280;20879;55.668;37.858;2022-12-07T01:21:03;101076.03;;;-12.00;75.30
34674;BME280;20879;55.668;37.858;2022-12-07T01:23:38;101066.47;;;-12.13;73.93
34674;BME280;20879;55.668;37.858;2022-12-07T01:26:10;101065.88;;;-12.19;74.31
34674;BME280;20879;55.668;37.858;2022-12-07T01:28:40;101072.91;;;-12.24;75.90
34674;BME280;20879;55.668;37.858;2022-12-07T01:31:11;101081.44;;;-12.31;75.48
34674;BME280;20879;55.668;37.858;2022-12-07T01:33:48;101072.03;;;-12.33;76.39
34674;BME280;20879;55.668;37.858;2022-12-07T01:36:21;101068.81;;;-12.32;76.21
34674;BME280;20879;55.668;37.858;2022-12-07T01:38:54;101071.44;;;-12.31;75.23
34674;BME280;20879;55.668;37.858;2022-12-07T01:41:25;101067.94;;;-12.33;75.46
34674;BME280;20879;55.668;37.858;2022-12-07T01:44:11;101076.28;;;-12.32;76.05
34674;BME280;20879;55.668;37.858;2022-12-07T01:46:44;101055.72;;;-12.38;75.78
34674;BME280;20879;55.668;37.858;2022-12-07T01:49:15;101063.25;;;-12.29;76.50
34674;BME280;20879;55.668;37.858;2022-12-07T01:51:57;101062.94;;;-12.33;75.72
34674;BME280;20879;55.668;37.858;2022-12-07T01:54:28;101059.41;;;-12.35;75.62
34674;BME280;20879;55.668;37.858;2022-12-07T01:56:57;101048.53;;;-12.44;75.68
34674;BME280;20879;55.668;37.858;2022-12-07T01:59:32;100979.16;;;-12.81;75.72
34674;BME280;20879;55.668;37.858;2022-12-07T02:02:04;101058.66;;;-12.34;75.14
34674;BME280;20879;55.668;37.858;2022-12-07T02:04:43;101043.69;;;-12.42;75.19
34674;BME280;20879;55.668;37.858;2022-12-07T02:07:15;101058.22;;;-12.38;75.33
34674;BME280;20879;55.668;37.858;2022-12-07T02:09:44;101060.72;;;-12.47;75.78
34674;BME280;20879;55.668;37.858;2022-12-07T02:12:14;101051.88;;;-12.52;76.26
34674;BME280;20879;55.668;37.858;2022-12-07T02:15:04;101057.16;;;-12.49;76.60
34674;BME280;20879;55.668;37.858;2022-12-07T02:17:40;101052.16;;;-12.49;77.07
34674;BME280;20879;55.668;37.858;2022-12-07T02:20:22;101048.81;;;-12.50;76.88
34674;BME280;20879;55.668;37.858;2022-12-07T02:23:25;101051.72;;;-12.54;77.55
34674;BME280;20879;55.668;37.858;2022-12-07T02:29:17;101048.06;;;-12.57;77.85
34674;BME280;20879;55.668;37.858;2022-12-07T02:31:56;101057.28;;;-12.56;77.19
34674;BME280;20879;55.668;37.858;2022-12-07T02:34:34;101057.56;;;-12.62;77.41
34674;BME280;20879;55.668;37.858;2022-12-07T02:37:10;100959.69;;;-13.19;77.58
34674;BME280;20879;55.668;37.858;2022-12-07T02:39:45;101040.97;;;-12.79;79.53
34674;BME280;20879;55.668;37.858;2022-12-07T02:42:19;100996.41;;;-13.09;79.01
34674;BME280;20879;55.668;37.858;2022-12-07T02:44:54;101033.41;;;-12.96;81.07
34674;BME280;20879;55.668;37.858;2022-12-07T02:47:24;101041.66;;;-12.89;81.93
34674;BME280;20879;55.668;37.858;2022-12-07T02:49:55;101043.44;;;-12.88;80.49
34674;BME280;20879;55.668;37.858;2022-12-07T02:52:29;101028.38;;;-13.14;82.60
34674;BME280;20879;55.668;37.858;2022-12-07T02:55:05;101016.28;;;-13.36;83.34
34674;BME280;20879;55.668;37.858;2022-12-07T02:57:49;101025.38;;;-13.27;83.29
34674;BME280;20879;55.668;37.858;2022-12-07T03:00:24;100959.03;;;-13.51;82.99
34674;BME280;20879;55.668;37.858;2022-12-07T03:02:56;101037.81;;;-13.03;82.20
34674;BME280;20879;55.668;37.858;2022-12-07T03:05:48;101039.25;;;-13.05;82.16
34674;BME280;20879;55.668;37.858;2022-12-07T03:08:27;101034.53;;;-13.10;83.01
34674;BME280;20879;55.668;37.858;2022-12-07T03:11:07;101041.84;;;-13.12;82.23
34674;BME280;20879;55.668;37.858;2022-12-07T03:13:49;101012.91;;;-13.27;82.35
34674;BME280;20879;55.668;37.858;2022-12-07T03:16:26;101031.69;;;-13.22;83.15
34674;BME280;20879;55.668;37.858;2022-12-07T03:19:00;101029.88;;;-13.07;81.18
34674;BME280;20879;55.668;37.858;2022-12-07T03:21:32;101036.00;;;-13.12;82.26
34674;BME280;20879;55.668;37.858;2022-12-07T03:24:10;101033.47;;;-13.21;83.46
34674;BME280;20879;55.668;37.858;2022-12-07T03:26:44;101033.75;;;-13.18;82.17
34674;BME280;20879;55.668;37.858;2022-12-07T03:29:19;101007.78;;;-13.38;82.61
34674;BME280;20879;55.668;37.858;2022-12-07T03:31:56;101043.88;;;-13.16;82.90
34674;BME280;20879;55.668;37.858;2022-12-07T03:34:30;101036.97;;;-13.19;82.45
34674;BME280;20879;55.668;37.858;2022-12-07T03:37:04;101035.81;;;-13.23;83.82
34674;BME280;20879;55.668;37.858;2022-12-07T03:39:39;101031.28;;;-13.18;83.30
34674;BME280;20879;55.668;37.858;2022-12-07T03:42:11;101028.78;;;-13.18;84.11
34674;BME280;20879;55.668;37.858;2022-12-07T03:44:41;101023.91;;;-13.25;82.93
34674;BME280;20879;55.668;37.858;2022-12-07T03:47:18;101038.00;;;-13.26;83.37
34674;BME280;20879;55.668;37.858;2022-12-07T03:49:52;101037.13;;;-13.26;83.40
34674;BME280;20879;55.668;37.858;2022-12-07T03:52:28;101037.28;;;-13.25;82.86
34674;BME280;20879;55.668;37.858;2022-12-07T03:55:02;101036.53;;;-13.24;82.50
34674;BME280;20879;55.668;37.858;2022-12-07T03:57:35;101014.94;;;-13.32;82.69
34674;BME280;20879;55.668;37.858;2022-12-07T04:00:08;100999.53;;;-13.37;82.80
34674;BME280;20879;55.668;37.858;2022-12-07T04:02:41;101034.06;;;-13.15;82.88
34674;BME280;20879;55.668;37.858;2022-12-07T04:05:16;101032.19;;;-13.18;83.00
34674;BME280;20879;55.668;37.858;2022-12-07T04:07:45;101033.31;;;-13.23;83.22
34674;BME280;20879;55.668;37.858;2022-12-07T04:10:20;101040.63;;;-13.24;83.21
34674;BME280;20879;55.668;37.858;2022-12-07T04:12:49;101031.53;;;-13.24;82.73
34674;BME280;20879;55.668;37.858;2022-12-07T04:15:18;101028.88;;;-13.25;83.01
34674;BME280;20879;55.668;37.858;2022-12-07T04:17:55;101026.50;;;-13.32;83.54
34674;BME280;20879;55.668;37.858;2022-12-07T04:20:25;101035.59;;;-13.33;82.82
34674;BME280;20879;55.668;37.858;2022-12-07T04:22:54;101015.34;;;-13.45;82.91
34674;BME280;20879;55.668;37.858;2022-12-07T04:25:23;101029.16;;;-13.40;83.59
34674;BME280;20879;55.668;37.858;2022-12-07T04:27:52;101021.47;;;-13.50;83.75
34674;BME280;20879;55.668;37.858;2022-12-07T04:30:22;101026.44;;;-13.50;83.44
34674;BME280;20879;55.668;37.858;2022-12-07T04:32:52;101032.91;;;-13.52;84.03
34674;BME280;20879;55.668;37.858;2022-12-07T04:35:23;101008.19;;;-13.66;83.78
34674;BME280;20879;55.668;37.858;2022-12-07T04:37:52;101024.66;;;-13.60;84.67
34674;BME280;20879;55.668;37.858;2022-12-07T04:40:26;101005.81;;;-13.74;84.34
34674;BME280;20879;55.668;37.858;2022-12-07T04:42:55;101014.50;;;-13.70;84.74
34674;BME280;20879;55.668;37.858;2022-12-07T04:45:25;100968.59;;;-13.97;84.49
34674;BME280;20879;55.668;37.858;2022-12-07T04:47:54;100991.31;;;-13.94;85.31
34674;BME280;20879;55.668;37.858;2022-12-07T04:50:25;101027.34;;;-13.74;85.85
34674;BME280;20879;55.668;37.858;2022-12-07T04:52:59;101030.47;;;-13.68;85.49
34674;BME280;20879;55.668;37.858;2022-12-07T04:55:29;101017.25;;;-13.76;85.44
34674;BME280;20879;55.668;37.858;2022-12-07T04:57:58;101002.28;;;-13.76;85.11
34674;BME280;20879;55.668;37.858;2022-12-07T05:00:27;101023.59;;;-13.62;84.95
34674;BME280;20879;55.668;37.858;2022-12-07T05:02:57;101024.81;;;-13.58;85.22
34674;BME280;20879;55.668;37.858;2022-12-07T05:05:28;101015.09;;;-13.64;85.07
34674;BME280;20879;55.668;37.858;2022-12-07T05:08:03;101017.28;;;-13.67;85.43
34674;BME280;20879;55.668;37.858;2022-12-07T05:10:32;101024.59;;;-13.68;85.26
34674;BME280;20879;55.668;37.858;2022-12-07T05:13:01;101026.25;;;-13.60;84.81
34674;BME280;20879;55.668;37.858;2022-12-07T05:15:31;101032.38;;;-13.65;85.73
34674;BME280;20879;55.668;37.858;2022-12-07T05:18:00;101018.31;;;-13.65;84.21
34674;BME280;20879;55.668;37.858;2022-12-07T05:20:36;101020.66;;;-13.66;83.84
34674;BME280;20879;55.668;37.858;2022-12-07T05:23:09;101023.97;;;-13.75;83.98
34674;BME280;20879;55.668;37.858;2022-12-07T05:25:39;101003.75;;;-13.94;85.24
34674;BME280;20879;55.668;37.858;2022-12-07T05:28:13;101028.00;;;-13.84;85.11
34674;BME280;20879;55.668;37.858;2022-12-07T05:30:49;101015.81;;;-13.90;85.35
34674;BME280;20879;55.668;37.858;2022-12-07T05:33:26;101028.09;;;-13.91;85.74
34674;BME280;20879;55.668;37.858;2022-12-07T05:35:58;101015.34;;;-13.94;85.20
34674;BME280;20879;55.668;37.858;2022-12-07T05:38:42;101023.06;;;-14.00;85.93
34674;BME280;20879;55.668;37.858;2022-12-07T05:41:14;101022.28;;;-14.08;86.63
34674;BME280;20879;55.668;37.858;2022-12-07T05:43:56;101019.38;;;-14.03;85.41
34674;BME280;20879;55.668;37.858;2022-12-07T05:46:26;101025.16;;;-14.12;87.12
34674;BME280;20879;55.668;37.858;2022-12-07T05:48:55;101026.06;;;-14.11;87.11
34674;BME280;20879;55.668;37.858;2022-12-07T05:51:26;101025.78;;;-14.06;86.23
34674;BME280;20879;55.668;37.858;2022-12-07T05:53:55;101022.59;;;-14.04;86.26
34674;BME280;20879;55.668;37.858;2022-12-07T05:56:35;101029.09;;;-13.98;86.57
34674;BME280;20879;55.668;37.858;2022-12-07T05:59:05;101008.69;;;-14.02;86.31
34674;BME280;20879;55.668;37.858;2022-12-07T06:01:47;101026.50;;;-13.91;86.24
34674;BME280;20879;55.668;37.858;2022-12-07T06:04:16;101026.22;;;-13.85;86.54
34674;BME280;20879;55.668;37.858;2022-12-07T06:06:47;101021.59;;;-13.82;86.63
34674;BME280;20879;55.668;37.858;2022-12-07T06:09:17;101016.66;;;-13.73;85.88
34674;BME280;20879;55.668;37.858;2022-12-07T06:11:52;101010.63;;;-13.75;86.03
34674;BME280;20879;55.668;37.858;2022-12-07T06:14:34;100987.03;;;-13.79;86.13
34674;BME280;20879;55.668;37.858;2022-12-07T06:17:04;101009.75;;;-13.51;85.47
34674;BME280;20879;55.668;37.858;2022-12-07T06:19:34;101015.97;;;-13.39;85.52
34674;BME280;20879;55.668;37.858;2022-12-07T06:22:06;101020.41;;;-13.27;85.17
34674;BME280;20879;55.668;37.858;2022-12-07T06:24:35;101007.22;;;-13.26;86.35
34674;BME280;20879;55.668;37.858;2022-12-07T06:27:05;100965.41;;;-13.38;85.20
34674;BME280;20879;55.668;37.858;2022-12-07T06:29:40;100991.13;;;-13.12;85.28
34674;BME280;20879;55.668;37.858;2022-12-07T06:32:09;101013.91;;;-12.92;85.97
34674;BME280;20879;55.668;37.858;2022-12-07T06:34:39;101007.03;;;-12.86;85.31
34674;BME280;20879;55.668;37.858;2022-12-07T06:37:10;101009.25;;;-12.80;84.67
34674;BME280;20879;55.668;37.858;2022-12-07T06:39:39;101008.56;;;-12.70;84.24
34674;BME280;20879;55.668;37.858;2022-12-07T06:42:09;101005.16;;;-12.71;84.05
34674;BME280;20879;55.668;37.858;2022-12-07T06:44:38;101010.50;;;-12.59;84.31
34674;BME280;20879;55.668;37.858;2022-12-07T06:47:09;101010.03;;;-12.55;84.33
34674;BME280;20879;55.668;37.858;2022-12-07T06:49:58;101008.59;;;-12.53;83.95
34674;BME280;20879;55.668;37.858;2022-12-07T06:52:30;101007.84;;;-12.43;83.79
34674;BME280;20879;55.668;37.858;2022-12-07T06:55:00;100967.16;;;-12.59;83.90
34674;BME280;20879;55.668;37.858;2022-12-07T06:57:29;101008.03;;;-12.33;83.34
34674;BME280;20879;55.668;37.858;2022-12-07T06:59:58;100979.06;;;-12.48;83.16
34674;BME280;20879;55.668;37.858;2022-12-07T07:02:30;101010.97;;;-12.19;83.23
34674;BME280;20879;55.668;37.858;2022-12-07T07:05:00;101003.31;;;-12.12;83.18
34674;BME280;20879;55.668;37.858;2022-12-07T07:07:31;101018.31;;;-11.94;82.99
34674;BME280;20879;55.668;37.858;2022-12-07T07:10:21;101003.31;;;-11.94;82.68
34674;BME280;20879;55.668;37.858;2022-12-07T07:12:50;101008.44;;;-11.93;82.68
34674;BME280;20879;55.668;37.858;2022-12-07T07:15:23;100985.66;;;-12.05;82.25
34674;BME280;20879;55.668;37.858;2022-12-07T07:17:53;101006.94;;;-11.82;82.64
34674;BME280;20879;55.668;37.858;2022-12-07T07:20:33;101010.28;;;-11.73;82.38
34674;BME280;20879;55.668;37.858;2022-12-07T07:23:05;101010.91;;;-11.75;82.55
34674;BME280;20879;55.668;37.858;2022-12-07T07:25:34;101012.31;;;-11.60;82.38
34674;BME280;20879;55.668;37.858;2022-12-07T07:28:03;100985.00;;;-11.76;82.03
34674;BME280;20879;55.668;37.858;2022-12-07T07:30:33;100996.28;;;-11.53;81.81
34674;BME280;20879;55.668;37.858;2022-12-07T07:33:03;101007.84;;;-11.45;81.75
34674;BME280;20879;55.668;37.858;2022-12-07T07:35:34;100998.91;;;-11.43;81.45
34674;BME280;20879;55.668;37.858;2022-12-07T07:38:06;100973.50;;;-11.56;81.72
34674;BME280;20879;55.668;37.858;2022-12-07T07:40:36;100993.41;;;-11.39;81.54
34674;BME280;20879;55.668;37.858;2022-12-07T07:43:10;100977.59;;;-11.48;81.63
34674;BME280;20879;55.668;37.858;2022-12-07T07:45:39;100985.72;;;-11.23;81.36
34674;BME280;20879;55.668;37.858;2022-12-07T07:48:09;100983.94;;;-11.15;81.42
34674;BME280;20879;55.668;37.858;2022-12-07T07:50:38;100994.38;;;-11.11;81.46
34674;BME280;20879;55.668;37.858;2022-12-07T07:53:10;100993.00;;;-11.07;81.08
34674;BME280;20879;55.668;37.858;2022-12-07T07:55:39;100961.44;;;-11.15;80.68
34674;BME280;20879;55.668;37.858;2022-12-07T07:58:08;100990.00;;;-10.94;80.93
34674;BME280;20879;55.668;37.858;2022-12-07T08:00:37;100987.03;;;-10.90;80.69
34674;BME280;20879;55.668;37.858;2022-12-07T08:03:12;100983.00;;;-10.79;80.62
34674;BME280;20879;55.668;37.858;2022-12-07T08:05:44;100985.19;;;-10.74;80.15
34674;BME280;20879;55.668;37.858;2022-12-07T08:08:15;100981.44;;;-10.60;80.18
34674;BME280;20879;55.668;37.858;2022-12-07T08:10:44;100981.75;;;-10.46;80.32
34674;BME280;20879;55.668;37.858;2022-12-07T08:13:15;100969.91;;;-10.39;79.65
34674;BME280;20879;55.668;37.858;2022-12-07T08:15:47;100971.31;;;-10.32;79.46
34674;BME280;20879;55.668;37.858;2022-12-07T08:18:16;100969.81;;;-10.30;79.21
34674;BME280;20879;55.668;37.858;2022-12-07T08:20:46;100942.84;;;-10.43;78.67
34674;BME280;20879;55.668;37.858;2022-12-07T08:23:17;100976.66;;;-10.19;79.06
34674;BME280;20879;55.668;37.858;2022-12-07T08:26:00;100968.81;;;-10.13;77.73
34674;BME280;20879;55.668;37.858;2022-12-07T08:28:29;100971.84;;;-10.07;78.29
34674;BME280;20879;55.668;37.858;2022-12-07T08:30:59;100943.19;;;-10.19;77.93
34674;BME280;20879;55.668;37.858;2022-12-07T08:33:29;100964.72;;;-10.02;76.60
34674;BME280;20879;55.668;37.858;2022-12-07T08:36:00;100953.59;;;-9.95;77.48
34674;BME280;20879;55.668;37.858;2022-12-07T08:38:33;100965.28;;;-9.86;77.15
34674;BME280;20879;55.668;37.858;2022-12-07T08:41:08;100960.78;;;-9.79;76.78
34674;BME280;20879;55.668;37.858;2022-12-07T08:43:37;100965.53;;;-9.82;76.10
34674;BME280;20879;55.668;37.858;2022-12-07T08:46:09;100962.56;;;-9.78;76.15
34674;BME280;20879;55.668;37.858;2022-12-07T08:48:41;100946.28;;;-9.73;75.85
34674;BME280;20879;55.668;37.858;2022-12-07T08:51:12;100954.06;;;-9.70;76.01
34674;BME280;20879;55.668;37.858;2022-12-07T08:53:50;100945.84;;;-9.59;76.12
34674;BME280;20879;55.668;37.858;2022-12-07T08:56:20;100944.25;;;-9.48;75.35
34674;BME280;20879;55.668;37.858;2022-12-07T08:58:49;100948.78;;;-9.44;75.29
34674;BME280;20879;55.668;37.858;2022-12-07T09:01:18;100934.59;;;-9.43;74.86
34674;BME280;20879;55.668;37.858;2022-12-07T09:03:48;100942.25;;;-9.32;74.87
34674;BME280;20879;55.668;37.858;2022-12-07T09:06:17;100939.00;;;-9.31;74.70
34674;BME280;20879;55.668;37.858;2022-12-07T09:08:49;100931.63;;;-9.29;74.03
34674;BME280;20879;55.668;37.858;2022-12-07T09:11:20;100933.88;;;-9.22;74.03
34674;BME280;20879;55.668;37.858;2022-12-07T09:13:54;100935.53;;;-9.12;74.07
34674;BME280;20879;55.668;37.858;2022-12-07T09:16:24;100936.78;;;-9.07;74.42
34674;BME280;20879;55.668;37.858;2022-12-07T09:18:54;100930.41;;;-9.03;73.53
34674;BME280;20879;55.668;37.858;2022-12-07T09:21:23;100927.38;;;-8.99;73.74
34674;BME280;20879;55.668;37.858;2022-12-07T09:23:54;100929.88;;;-8.99;73.14
34674;BME280;20879;55.668;37.858;2022-12-07T09:26:28;100922.88;;;-8.93;73.38
34674;BME280;20879;55.668;37.858;2022-12-07T09:28:58;100924.84;;;-8.99;72.40
34674;BME280;20879;55.668;37.858;2022-12-07T09:31:27;100914.44;;;-9.04;72.53
34674;BME280;20879;55.668;37.858;2022-12-07T09:33:58;100917.84;;;-9.03;72.12
34674;BME280;20879;55.668;37.858;2022-12-07T09:36:28;100903.28;;;-9.07;72.20
34674;BME280;20879;55.668;37.858;2022-12-07T09:38:59;100914.81;;;-8.99;72.16
34674;BME280;20879;55.668;37.858;2022-12-07T09:41:30;100901.53;;;-8.98;72.20
34674;BME280;20879;55.668;37.858;2022-12-07T09:44:05;100898.75;;;-8.91;71.40
34674;BME280;20879;55.668;37.858;2022-12-07T09:46:36;100906.28;;;-8.91;70.64
34674;BME280;20879;55.668;37.858;2022-12-07T09:49:11;100909.53;;;-8.92;70.90
34674;BME280;20879;55.668;37.858;2022-12-07T09:51:40;100873.41;;;-9.15;69.72
34674;BME280;20879;55.668;37.858;2022-12-07T09:54:15;100903.16;;;-8.99;70.47
34674;BME280;20879;55.668;37.858;2022-12-07T09:56:45;100894.97;;;-8.96;70.66
34674;BME280;20879;55.668;37.858;2022-12-07T09:59:17;100898.25;;;-8.87;70.63
34674;BME280;20879;55.668;37.858;2022-12-07T10:01:48;100891.72;;;-8.85;69.19
34674;BME280;20879;55.668;37.858;2022-12-07T10:04:20;100900.53;;;-8.80;70.69
34674;BME280;20879;55.668;37.858;2022-12-07T10:06:53;100883.56;;;-8.82;70.30
34674;BME280;20879;55.668;37.858;2022-12-07T10:09:24;100882.94;;;-8.69;70.30
34674;BME280;20879;55.668;37.858;2022-12-07T10:12:04;100882.91;;;-8.59;70.19
34674;BME280;20879;55.668;37.858;2022-12-07T10:14:37;100879.50;;;-8.59;69.19
34674;BME280;20879;55.668;37.858;2022-12-07T10:17:35;100884.41;;;-8.61;69.12
34674;BME280;20879;55.668;37.858;2022-12-07T10:20:18;100884.53;;;-8.70;68.80
34674;BME280;20879;55.668;37.858;2022-12-07T10:22:59;100877.16;;;-8.79;68.49
34674;BME280;20879;55.668;37.858;2022-12-07T10:25:32;100875.41;;;-8.80;69.14
34674;BME280;20879;55.668;37.858;2022-12-07T10:28:11;100887.16;;;-8.68;69.37
34674;BME280;20879;55.668;37.858;2022-12-07T10:30:55;100878.66;;;-8.81;68.19
34674;BME280;20879;55.668;37.858;2022-12-07T10:33:35;100884.44;;;-8.82;69.08
34674;BME280;20879;55.668;37.858;2022-12-07T10:36:20;100870.63;;;-8.76;68.98
34674;BME280;20879;55.668;37.858;2022-12-07T10:39:00;100879.41;;;-8.71;69.20
34674;BME280;20879;55.668;37.858;2022-12-07T10:41:31;100865.59;;;-8.76;69.03
34674;BME280;20879;55.668;37.858;2022-12-07T10:44:01;100873.63;;;-8.70;69.13
34674;BME280;20879;55.668;37.858;2022-12-07T10:46:47;100866.09;;;-8.70;69.12
34674;BME280;20879;55.668;37.858;2022-12-07T10:52:32;100852.81;;;-8.80;69.11
34674;BME280;20879;55.668;37.858;2022-12-07T10:55:16;100861.94;;;-8.70;69.22
34674;BME280;20879;55.668;37.858;2022-12-07T10:58:09;100856.78;;;-8.71;68.81
34674;BME280;20879;55.668;37.858;2022-12-07T11:00:56;100839.00;;;-8.85;68.94
34674;BME280;20879;55.668;37.858;2022-12-07T11:03:38;100852.81;;;-8.80;69.27
34674;BME280;20879;55.668;37.858;2022-12-07T11:06:23;100840.16;;;-8.91;69.06
34674;BME280;20879;55.668;37.858;2022-12-07T11:09:11;100839.75;;;-8.86;69.02
34674;BME280;20879;55.668;37.858;2022-12-07T11:12:16;100839.25;;;-8.92;69.16
34674;BME280;20879;55.668;37.858;2022-12-07T11:15:02;100820.47;;;-8.97;69.50
34674;BME280;20879;55.668;37.858;2022-12-07T11:17:39;100834.47;;;-8.89;69.14
34674;BME280;20879;55.668;37.858;2022-12-07T11:20:18;100836.88;;;-8.90;69.48
34674;BME280;20879;55.668;37.858;2022-12-07T11:22:58;100829.34;;;-8.90;69.74
34674;BME280;20879;55.668;37.858;2022-12-07T11:25:38;100815.53;;;-8.85;69.83
34674;BME280;20879;55.668;37.858;2022-12-07T11:28:20;100826.09;;;-8.89;69.44
34674;BME280;20879;55.668;37.858;2022-12-07T11:30:59;100816.53;;;-8.93;69.61
34674;BME280;20879;55.668;37.858;2022-12-07T11:33:37;100787.09;;;-9.17;69.24
34674;BME280;20879;55.668;37.858;2022-12-07T11:36:17;100795.50;;;-9.16;69.57
34674;BME280;20879;55.668;37.858;2022-12-07T11:38:57;100817.44;;;-8.93;70.00
34674;BME280;20879;55.668;37.858;2022-12-07T11:41:32;100818.69;;;-8.98;69.85
34674;BME280;20879;55.668;37.858;2022-12-07T11:44:06;100817.72;;;-9.00;70.14
34674;BME280;20879;55.668;37.858;2022-12-07T11:46:47;100827.09;;;-8.98;70.07
34674;BME280;20879;55.668;37.858;2022-12-07T11:49:23;100816.69;;;-9.02;69.95
34674;BME280;20879;55.668;37.858;2022-12-07T11:51:59;100811.19;;;-9.08;70.24
34674;BME280;20879;55.668;37.858;2022-12-07T11:54:33;100810.19;;;-9.10;70.24
34674;BME280;20879;55.668;37.858;2022-12-07T11:57:10;100792.91;;;-9.28;70.48
34674;BME280;20879;55.668;37.858;2022-12-07T11:59:48;100809.69;;;-9.27;70.49
34674;BME280;20879;55.668;37.858;2022-12-07T12:02:24;100807.81;;;-9.29;70.89
34674;BME280;20879;55.668;37.858;2022-12-07T12:05:02;100805.19;;;-9.31;70.56
34674;BME280;20879;55.668;37.858;2022-12-07T12:07:36;100801.41;;;-9.36;70.51
34674;BME280;20879;55.668;37.858;2022-12-07T12:10:34;100799.16;;;-9.33;70.92
34674;BME280;20879;55.668;37.858;2022-12-07T12:13:25;100803.81;;;-9.38;71.03
34674;BME280;20879;55.668;37.858;2022-12-07T12:16:35;100796.41;;;-9.46;70.81
34674;BME280;20879;55.668;37.858;2022-12-07T12:19:22;100798.28;;;-9.54;71.28
34674;BME280;20879;55.668;37.858;2022-12-07T12:21:57;100798.03;;;-9.57;71.18
34674;BME280;20879;55.668;37.858;2022-12-07T12:24:33;100793.16;;;-9.66;71.63
34674;BME280;20879;55.668;37.858;2022-12-07T12:27:07;100793.41;;;-9.63;71.50
34674;BME280;20879;55.668;37.858;2022-12-07T12:29:39;100762.03;;;-9.89;71.98
34674;BME280;20879;55.668;37.858;2022-12-07T12:32:17;100787.47;;;-9.74;71.79
34674;BME280;20879;55.668;37.858;2022-12-07T12:35:20;100779.56;;;-9.78;71.97
34674;BME280;20879;55.668;37.858;2022-12-07T12:37:52;100784.09;;;-9.85;72.18
34674;BME280;20879;55.668;37.858;2022-12-07T12:43:52;100790.09;;;-9.82;72.45
34674;BME280;20879;55.668;37.858;2022-12-07T12:46:50;100781.59;;;-9.85;72.71
34674;BME280;20879;55.668;37.858;2022-12-07T12:55:11;100771.47;;;-10.26;71.42
34674;BME280;20879;55.668;37.858;2022-12-07T12:57:41;100759.31;;;-10.42;72.38
34674;BME280;20879;55.668;37.858;2022-12-07T13:00:16;100764.31;;;-10.42;73.62
34674;BME280;20879;55.668;37.858;2022-12-07T13:02:50;100763.06;;;-10.37;73.06
34674;BME280;20879;55.668;37.858;2022-12-07T13:05:23;100768.97;;;-10.36;73.16
34674;BME280;20879;55.668;37.858;2022-12-07T13:08:00;100750.53;;;-10.47;74.02
34674;BME280;20879;55.668;37.858;2022-12-07T13:10:42;100757.41;;;-10.44;74.70
34674;BME280;20879;55.668;37.858;2022-12-07T13:13:31;100768.84;;;-10.38;74.61
34674;BME280;20879;55.668;37.858;2022-12-07T13:22:58;100763.81;;;-10.48;74.37
34674;BME280;20879;55.668;37.858;2022-12-07T13:25:41;100763.94;;;-10.46;74.73
34674;BME280;20879;55.668;37.858;2022-12-07T13:28:16;100780.69;;;-10.45;74.29
34674;BME280;20879;55.668;37.858;2022-12-07T13:30:53;100774.94;;;-10.44;74.34